createdAt,value
2022-12-20T00:01:33.421Z,17.57
2022-12-20T00:04:02.556Z,16.43
2022-12-20T00:06:29.649Z,15.17
2022-12-20T00:08:58.770Z,12.57
2022-12-20T00:11:26.956Z,12.73
2022-12-20T00:13:54.030Z,14.30
2022-12-20T00:16:25.158Z,14.73
2022-12-20T00:18:55.085Z,15.67
2022-12-20T00:21:22.372Z,11.93
2022-12-20T00:23:49.241Z,12.27
2022-12-20T00:26:18.745Z,12.67
2022-12-20T00:28:46.144Z,14.87
2022-12-20T00:31:15.336Z,14.10
2022-12-20T00:33:44.980Z,14.20
2022-12-20T00:36:12.231Z,16.37
2022-12-20T00:38:39.261Z,13.60
2022-12-20T00:41:12.537Z,15.40
2022-12-20T00:43:41.086Z,14.63
2022-12-20T00:46:11.680Z,14.73
2022-12-20T00:48:39.498Z,14.33
2022-12-20T00:51:12.248Z,14.33
2022-12-20T00:53:40.443Z,14.50
2022-12-20T00:56:08.915Z,13.90
2022-12-20T00:58:39.321Z,13.47
2022-12-20T01:01:16.450Z,14.53
2022-12-20T01:03:43.324Z,12.67
2022-12-20T01:06:11.431Z,12.10
2022-12-20T01:08:39.507Z,13.13
2022-12-20T01:11:34.603Z,35.47
2022-12-20T01:14:06.163Z,11.00
2022-12-20T01:16:37.895Z,39.10
2022-12-20T01:19:06.814Z,45.73
2022-12-20T01:21:34.652Z,15.13
2022-12-20T01:24:01.396Z,17.63
2022-12-20T01:26:30.153Z,13.53
2022-12-20T01:28:59.953Z,20.37
2022-12-20T01:31:27.322Z,14.00
2022-12-20T01:33:54.841Z,18.97
2022-12-20T01:36:27.619Z,13.60
2022-12-20T01:39:15.613Z,14.53
2022-12-20T01:41:44.040Z,12.43
2022-12-20T01:44:16.826Z,12.97
2022-12-20T01:46:45.067Z,14.73
2022-12-20T01:49:20.538Z,19.20
2022-12-20T01:51:52.065Z,17.70
2022-12-20T01:54:31.206Z,14.87
2022-12-20T01:57:02.350Z,12.97
2022-12-20T01:59:29.727Z,14.37
2022-12-20T02:02:03.521Z,13.87
2022-12-20T02:04:30.489Z,12.63
2022-12-20T02:06:58.156Z,9.60
2022-12-20T02:09:25.159Z,12.67
2022-12-20T02:12:19.976Z,12.83
2022-12-20T02:14:58.555Z,10.37
2022-12-20T02:17:56.680Z,10.37
2022-12-20T02:21:02.406Z,11.00
2022-12-20T02:23:54.269Z,13.67
2022-12-20T02:26:39.924Z,12.53
2022-12-20T02:29:18.804Z,12.20
2022-12-20T02:32:17.202Z,14.37
2022-12-20T02:34:44.718Z,10.50
2022-12-20T02:37:12.127Z,10.90
2022-12-20T02:39:42.112Z,12.30
2022-12-20T02:42:21.615Z,11.00
2022-12-20T02:45:15.503Z,20.70
2022-12-20T02:47:49.927Z,10.97
2022-12-20T02:50:48.687Z,14.57
2022-12-20T02:53:16.849Z,9.80
2022-12-20T02:55:48.152Z,10.73
2022-12-20T02:58:34.702Z,9.20
2022-12-20T03:01:09.264Z,10.77
2022-12-20T03:03:36.919Z,9.23
2022-12-20T03:06:03.906Z,11.27
2022-12-20T03:08:30.785Z,10.27
2022-12-20T03:10:57.965Z,9.67
2022-12-20T03:13:25.826Z,8.70
2022-12-20T03:15:58.903Z,10.00
2022-12-20T03:18:25.740Z,10.37
2022-12-20T03:20:52.458Z,7.77
2022-12-20T03:23:19.248Z,9.60
2022-12-20T03:25:46.334Z,7.37
2022-12-20T03:28:20.692Z,6.77
2022-12-20T03:30:47.639Z,7.77
2022-12-20T03:33:14.457Z,7.37
2022-12-20T03:35:43.047Z,8.03
2022-12-20T03:38:10.867Z,9.83
2022-12-20T03:40:37.734Z,7.67
2022-12-20T03:43:05.422Z,11.93
2022-12-20T03:45:32.223Z,8.77
2022-12-20T03:47:59.030Z,11.97
2022-12-20T03:50:28.303Z,8.27
2022-12-20T03:52:55.952Z,8.63
2022-12-20T03:55:22.830Z,6.63
2022-12-20T03:57:50.472Z,7.57
2022-12-20T04:00:28.060Z,9.77
2022-12-20T04:03:05.895Z,10.50
2022-12-20T04:05:33.614Z,11.20
2022-12-20T04:08:01.007Z,7.67
2022-12-20T04:10:28.079Z,8.50
2022-12-20T04:12:56.486Z,8.13
2022-12-20T04:15:23.799Z,9.37
2022-12-20T04:17:53.903Z,7.87
2022-12-20T04:20:21.091Z,8.60
2022-12-20T04:23:00.955Z,6.73
2022-12-20T04:25:28.152Z,5.07
2022-12-20T04:27:56.184Z,7.83
2022-12-20T04:30:22.898Z,6.60
2022-12-20T04:32:49.885Z,9.40
2022-12-20T04:35:16.686Z,6.80
2022-12-20T04:37:43.614Z,6.17
2022-12-20T04:40:11.404Z,10.17
2022-12-20T04:42:46.470Z,17.30
2022-12-20T04:45:14.854Z,49.33
2022-12-20T04:47:41.761Z,11.57
2022-12-20T04:50:11.463Z,9.03
2022-12-20T04:52:59.842Z,19.23
2022-12-20T04:55:26.748Z,10.17
2022-12-20T04:57:53.432Z,9.63
2022-12-20T05:00:21.073Z,10.13
2022-12-20T05:02:54.322Z,7.00
2022-12-20T05:05:24.316Z,7.07
2022-12-20T05:07:55.332Z,7.17
2022-12-20T05:10:23.214Z,8.27
2022-12-20T05:12:51.329Z,6.10
2022-12-20T05:15:29.786Z,5.27
2022-12-20T05:18:00.371Z,7.43
2022-12-20T05:20:35.098Z,9.23
2022-12-20T05:23:21.361Z,9.13
2022-12-20T05:26:02.635Z,6.07
2022-12-20T05:28:30.546Z,7.27
2022-12-20T05:30:58.106Z,5.30
2022-12-20T05:33:30.453Z,5.73
2022-12-20T05:36:01.632Z,11.00
2022-12-20T05:38:28.432Z,6.37
2022-12-20T05:40:55.787Z,6.63
2022-12-20T05:43:22.833Z,6.23
2022-12-20T05:45:52.935Z,5.53
2022-12-20T05:48:28.668Z,6.23
2022-12-20T05:50:55.851Z,6.10
2022-12-20T05:53:28.641Z,4.60
2022-12-20T05:55:59.392Z,12.47
2022-12-20T05:58:29.858Z,4.97
2022-12-20T06:01:05.651Z,7.43
2022-12-20T06:03:37.997Z,7.80
2022-12-20T06:06:13.919Z,4.90
2022-12-20T06:08:41.156Z,8.33
2022-12-20T06:11:11.810Z,6.43
2022-12-20T06:13:48.871Z,6.37
2022-12-20T06:16:15.942Z,8.47
2022-12-20T06:18:43.678Z,8.10
2022-12-20T06:21:12.467Z,5.53
2022-12-20T06:23:39.173Z,8.43
2022-12-20T06:26:09.832Z,7.53
2022-12-20T06:28:46.381Z,7.93
2022-12-20T06:31:14.003Z,7.43
2022-12-20T06:33:47.892Z,6.83
2022-12-20T06:36:16.430Z,7.53
2022-12-20T06:38:44.259Z,5.43
2022-12-20T06:41:11.379Z,7.57
2022-12-20T06:43:39.083Z,9.43
2022-12-20T06:46:06.451Z,5.87
2022-12-20T06:48:33.251Z,7.33
2022-12-20T06:51:00.158Z,18.70
2022-12-20T06:53:28.039Z,6.57
2022-12-20T06:55:55.066Z,5.63
2022-12-20T06:58:22.512Z,6.33
2022-12-20T07:00:49.693Z,8.20
2022-12-20T07:03:16.724Z,8.30
2022-12-20T07:05:44.095Z,9.07
2022-12-20T07:08:11.256Z,8.37
2022-12-20T07:10:38.055Z,7.87
2022-12-20T07:13:04.792Z,8.40
2022-12-20T07:15:31.654Z,7.77
2022-12-20T07:17:59.360Z,5.83
2022-12-20T07:20:26.469Z,7.13
2022-12-20T07:22:53.320Z,5.90
2022-12-20T07:25:20.284Z,7.83
2022-12-20T07:27:50.136Z,6.13
2022-12-20T07:30:18.184Z,7.47
2022-12-20T07:32:45.260Z,6.40
2022-12-20T07:35:13.296Z,10.37
2022-12-20T07:37:40.394Z,7.37
2022-12-20T07:40:08.606Z,9.13
2022-12-20T07:42:37.320Z,6.20
2022-12-20T07:45:07.820Z,9.03
2022-12-20T07:47:35.965Z,5.43
2022-12-20T07:50:03.737Z,8.10
2022-12-20T07:52:34.722Z,6.13
2022-12-20T07:55:03.965Z,9.87
2022-12-20T07:57:45.305Z,5.60
2022-12-20T08:00:13.549Z,6.30
2022-12-20T08:02:47.197Z,4.37
2022-12-20T08:05:14.794Z,7.43
2022-12-20T08:07:42.960Z,8.87
2022-12-20T08:10:13.541Z,9.63
2022-12-20T08:12:41.917Z,9.30
2022-12-20T08:15:09.109Z,6.03
2022-12-20T08:17:35.838Z,10.60
2022-12-20T08:20:03.121Z,8.23
2022-12-20T08:22:29.854Z,5.63
2022-12-20T08:24:57.103Z,5.63
2022-12-20T08:27:23.847Z,7.27
2022-12-20T08:29:50.643Z,6.47
2022-12-20T08:32:17.456Z,7.13
2022-12-20T08:34:44.772Z,5.53
2022-12-20T08:37:14.955Z,7.33
2022-12-20T08:39:42.278Z,5.30
2022-12-20T08:42:09.215Z,8.40
2022-12-20T08:44:35.995Z,8.57
2022-12-20T08:47:02.706Z,5.17
2022-12-20T08:49:30.059Z,8.83
2022-12-20T08:51:57.828Z,9.60
2022-12-20T08:54:24.526Z,6.03
2022-12-20T08:56:51.216Z,7.37
2022-12-20T08:59:18.561Z,8.80
2022-12-20T09:01:45.942Z,9.23
2022-12-20T09:04:13.290Z,9.50
2022-12-20T09:06:40.968Z,6.63
2022-12-20T09:09:08.299Z,5.07
2022-12-20T09:11:35.007Z,8.03
2022-12-20T09:14:02.079Z,9.37
2022-12-20T09:16:31.916Z,7.07
2022-12-20T09:19:05.060Z,9.37
2022-12-20T09:21:32.959Z,9.00
2022-12-20T09:24:00.440Z,8.23
2022-12-20T09:26:28.046Z,6.67
2022-12-20T09:28:54.905Z,8.43
2022-12-20T09:31:23.821Z,10.07
2022-12-20T09:33:54.812Z,5.43
2022-12-20T09:36:23.904Z,6.93
2022-12-20T09:38:51.217Z,6.83
2022-12-20T09:41:43.215Z,7.97
2022-12-20T09:44:34.447Z,5.90
2022-12-20T09:47:10.587Z,5.20
2022-12-20T09:49:44.831Z,6.23
2022-12-20T09:52:31.130Z,7.10
2022-12-20T09:55:19.548Z,7.43
2022-12-20T09:58:04.773Z,5.77
2022-12-20T10:00:40.405Z,8.70
2022-12-20T10:03:14.997Z,5.87
2022-12-20T10:05:57.771Z,7.23
2022-12-20T10:08:25.157Z,11.03
2022-12-20T10:11:00.139Z,7.80
2022-12-20T10:14:02.444Z,6.63
2022-12-20T10:16:46.525Z,7.73
2022-12-20T10:19:35.197Z,7.30
2022-12-20T10:22:30.044Z,5.83
2022-12-20T10:25:11.900Z,6.07
2022-12-20T10:27:43.376Z,6.37
2022-12-20T10:30:23.592Z,7.93
2022-12-20T10:32:55.898Z,6.07
2022-12-20T10:35:37.505Z,8.10
2022-12-20T10:38:08.843Z,11.90
2022-12-20T10:41:18.944Z,8.30
2022-12-20T10:43:28.531Z,7.67
2022-12-20T10:46:02.452Z,7.00
2022-12-20T10:48:29.356Z,10.67
2022-12-20T10:51:06.206Z,10.77
2022-12-20T10:53:35.690Z,6.50
2022-12-20T10:56:29.134Z,7.80
2022-12-20T10:59:00.568Z,5.10
2022-12-20T11:01:34.049Z,5.87
2022-12-20T11:04:21.194Z,5.90
2022-12-20T11:06:48.186Z,5.13
2022-12-20T11:09:37.126Z,4.73
2022-12-20T11:12:12.265Z,6.67
2022-12-20T11:14:40.446Z,6.63
2022-12-20T11:17:17.880Z,4.67
2022-12-20T11:19:52.156Z,4.87
2022-12-20T11:22:28.315Z,9.27
2022-12-20T11:25:06.202Z,5.57
2022-12-20T11:27:55.401Z,8.03
2022-12-20T11:30:35.712Z,6.60
2022-12-20T11:33:20.856Z,5.47
2022-12-20T11:36:00.754Z,6.23
2022-12-20T11:38:36.715Z,6.63
2022-12-20T11:41:25.208Z,6.40
2022-12-20T11:44:24.437Z,5.23
2022-12-20T11:46:48.417Z,5.27
2022-12-20T11:49:57.581Z,6.67
2022-12-20T11:52:47.117Z,5.50
2022-12-20T11:55:14.192Z,7.33
2022-12-20T11:58:16.895Z,6.17
2022-12-20T12:00:38.139Z,5.33
2022-12-20T12:03:15.175Z,5.37
2022-12-20T12:06:01.133Z,5.70
2022-12-20T12:08:41.038Z,7.60
2022-12-20T12:11:55.673Z,7.90
2022-12-20T12:14:06.042Z,7.77
2022-12-20T12:16:42.859Z,6.20
2022-12-20T12:19:12.902Z,6.47
2022-12-20T12:22:02.262Z,7.53
2022-12-20T12:24:35.353Z,8.10
2022-12-20T12:27:02.959Z,5.40
2022-12-20T12:29:31.386Z,7.07
2022-12-20T12:32:11.715Z,5.43
2022-12-20T12:34:50.998Z,5.40
2022-12-20T12:37:34.987Z,6.53
2022-12-20T12:40:29.149Z,7.47
2022-12-20T12:43:14.859Z,6.27
2022-12-20T12:45:47.724Z,5.53
2022-12-20T12:48:22.473Z,5.80
2022-12-20T12:50:53.699Z,6.30
2022-12-20T12:53:22.506Z,11.27
2022-12-20T12:56:07.563Z,8.03
2022-12-20T12:58:48.500Z,9.60
2022-12-20T13:01:56.180Z,6.97
2022-12-20T13:04:30.202Z,10.57
2022-12-20T13:07:01.850Z,8.70
2022-12-20T13:09:28.496Z,8.00
2022-12-20T13:12:02.508Z,7.03
2022-12-20T13:14:35.767Z,6.50
2022-12-20T13:17:12.162Z,7.00
2022-12-20T13:19:49.260Z,6.90
2022-12-20T13:22:25.238Z,12.10
2022-12-20T13:25:04.503Z,6.53
2022-12-20T13:27:41.617Z,10.30
2022-12-20T13:30:12.097Z,8.67
2022-12-20T13:32:48.392Z,9.50
2022-12-20T13:35:24.680Z,13.40
2022-12-20T13:38:13.571Z,11.10
2022-12-20T13:40:55.348Z,9.97
2022-12-20T13:43:22.296Z,8.97
2022-12-20T13:45:58.960Z,7.30
2022-12-20T13:48:32.284Z,8.10
2022-12-20T13:50:59.727Z,8.93
2022-12-20T13:53:27.990Z,9.47
2022-12-20T13:55:56.733Z,9.33
2022-12-20T13:58:44.904Z,13.07
2022-12-20T14:01:13.855Z,11.80
2022-12-20T14:03:45.067Z,11.70
2022-12-20T14:06:14.924Z,11.73
2022-12-20T14:08:47.259Z,13.47
2022-12-20T14:11:20.250Z,14.57
2022-12-20T14:14:15.837Z,10.90
2022-12-20T14:16:42.552Z,11.53
2022-12-20T14:19:15.071Z,11.83
2022-12-20T14:21:45.521Z,10.90
2022-12-20T14:24:19.295Z,11.03
2022-12-20T14:26:48.729Z,11.67
2022-12-20T14:29:26.961Z,118.87
2022-12-20T14:31:53.955Z,35.93
2022-12-20T14:34:30.042Z,18.47
2022-12-20T14:37:27.543Z,12.27
2022-12-20T14:40:15.889Z,16.73
2022-12-20T14:42:42.869Z,18.00
2022-12-20T14:45:09.632Z,14.67
2022-12-20T14:47:38.069Z,15.37
2022-12-20T14:50:22.379Z,16.77
2022-12-20T14:52:49.460Z,12.87
2022-12-20T14:55:22.502Z,12.80
2022-12-20T14:57:52.701Z,26.40
2022-12-20T15:00:19.378Z,13.83
2022-12-20T15:02:52.763Z,69.50
2022-12-20T15:05:40.655Z,44.33
2022-12-20T15:08:17.173Z,28.93
2022-12-20T15:11:08.492Z,23.10
2022-12-20T15:13:42.552Z,21.07
2022-12-20T15:16:18.473Z,17.90
2022-12-20T15:18:46.575Z,22.93
2022-12-20T15:21:15.772Z,35.17
2022-12-20T15:23:51.719Z,34.10
2022-12-20T15:26:21.658Z,30.70
2022-12-20T15:28:48.518Z,17.03
2022-12-20T15:31:18.545Z,20.93
2022-12-20T15:33:46.733Z,15.97
2022-12-20T15:36:19.612Z,17.03
2022-12-20T15:39:11.162Z,18.10
2022-12-20T15:41:35.023Z,17.90
2022-12-20T15:44:13.227Z,15.40
2022-12-20T15:46:40.025Z,18.03
2022-12-20T15:49:06.977Z,23.00
2022-12-20T15:51:36.151Z,23.00
2022-12-20T15:54:05.826Z,22.53
2022-12-20T15:56:33.553Z,24.43
2022-12-20T15:59:00.731Z,24.77
2022-12-20T16:01:38.320Z,24.90
2022-12-20T16:04:08.310Z,18.87
2022-12-20T16:06:35.190Z,21.77
2022-12-20T16:09:02.005Z,18.00
2022-12-20T16:11:30.977Z,16.90
2022-12-20T16:13:59.897Z,17.47
2022-12-20T16:16:29.222Z,18.50
2022-12-20T16:18:56.446Z,16.80
2022-12-20T16:21:31.250Z,24.37
2022-12-20T16:23:58.643Z,21.03
2022-12-20T16:26:26.521Z,20.53
2022-12-20T16:28:55.180Z,20.67
2022-12-20T16:31:31.366Z,24.43
2022-12-20T16:34:01.150Z,28.70
2022-12-20T16:36:28.304Z,20.03
2022-12-20T16:38:55.470Z,20.57
2022-12-20T16:41:25.373Z,21.97
2022-12-20T16:43:52.421Z,18.53
2022-12-20T16:46:21.736Z,19.83
2022-12-20T16:48:50.237Z,21.03
2022-12-20T16:51:39.653Z,18.13
2022-12-20T16:54:21.730Z,21.90
2022-12-20T16:56:55.227Z,23.63
2022-12-20T16:59:23.765Z,22.07
2022-12-20T17:01:53.611Z,19.07
2022-12-20T17:04:21.519Z,25.40
2022-12-20T17:06:49.340Z,21.40
2022-12-20T17:09:16.611Z,20.70
2022-12-20T17:11:43.838Z,25.43
2022-12-20T17:14:13.741Z,22.03
2022-12-20T17:16:41.181Z,24.47
2022-12-20T17:19:10.891Z,21.33
2022-12-20T17:24:27.021Z,30.60
2022-12-20T17:26:55.377Z,24.83
2022-12-20T17:29:22.140Z,24.23
2022-12-20T17:31:49.681Z,24.17
2022-12-20T17:34:22.390Z,22.53
2022-12-20T17:36:52.011Z,24.97
2022-12-20T17:39:19.468Z,27.07
2022-12-20T17:41:47.677Z,20.17
2022-12-20T17:44:19.683Z,26.07
2022-12-20T17:46:47.975Z,28.73
2022-12-20T17:49:14.899Z,26.70
2022-12-20T17:51:43.066Z,30.77
2022-12-20T17:54:34.853Z,27.40
2022-12-20T17:57:06.163Z,25.60
2022-12-20T17:59:33.125Z,30.60
2022-12-20T18:02:00.199Z,26.30
2022-12-20T18:04:27.228Z,26.57
2022-12-20T18:06:54.094Z,28.63
2022-12-20T18:09:21.966Z,27.63
2022-12-20T18:11:50.158Z,29.87
2022-12-20T18:14:18.594Z,26.80
2022-12-20T18:16:46.122Z,30.90
2022-12-20T18:19:19.341Z,31.77
2022-12-20T18:21:47.129Z,28.87
2022-12-20T18:24:16.033Z,27.50
2022-12-20T18:26:44.304Z,29.87
2022-12-20T18:29:11.478Z,29.30
2022-12-20T18:31:38.588Z,28.73
2022-12-20T18:34:05.509Z,26.43
2022-12-20T18:36:35.300Z,30.80
2022-12-20T18:39:05.397Z,25.63
2022-12-20T18:41:32.935Z,29.53
2022-12-20T18:44:03.721Z,31.37
2022-12-20T18:46:31.204Z,28.00
2022-12-20T18:49:00.280Z,29.60
2022-12-20T18:51:36.666Z,28.00
2022-12-20T18:54:05.721Z,26.87
2022-12-20T18:56:35.419Z,29.23
2022-12-20T18:59:10.848Z,28.47
2022-12-20T19:01:40.308Z,30.47
2022-12-20T19:04:07.987Z,31.03
2022-12-20T19:06:36.414Z,32.00
2022-12-20T19:09:06.779Z,31.97
2022-12-20T19:11:34.103Z,26.13
2022-12-20T19:14:01.509Z,29.33
2022-12-20T19:16:32.852Z,29.07
2022-12-20T19:19:02.672Z,33.73
2022-12-20T19:21:35.761Z,29.53
2022-12-20T19:24:06.951Z,30.43
2022-12-20T19:26:35.912Z,30.10
2022-12-20T19:29:03.419Z,28.57
2022-12-20T19:31:33.353Z,31.63
2022-12-20T19:34:08.747Z,28.47
2022-12-20T19:36:39.283Z,30.83
2022-12-20T19:39:11.939Z,30.80
2022-12-20T19:41:38.704Z,32.43
2022-12-20T19:44:06.315Z,36.20
2022-12-20T19:46:33.531Z,32.03
2022-12-20T19:49:00.753Z,35.40
2022-12-20T19:51:28.559Z,26.60
2022-12-20T19:53:57.415Z,29.87
2022-12-20T19:56:27.017Z,26.97
2022-12-20T19:58:55.517Z,30.63
2022-12-20T20:01:26.238Z,30.27
2022-12-20T20:03:58.531Z,31.03
2022-12-20T20:06:26.473Z,31.43
2022-12-20T20:08:57.624Z,32.40
2022-12-20T20:11:24.761Z,30.47
2022-12-20T20:13:52.300Z,34.33
2022-12-20T20:16:22.625Z,39.03
2022-12-20T20:18:50.224Z,39.10
2022-12-20T20:21:21.813Z,33.77
2022-12-20T20:23:53.496Z,36.47
2022-12-20T20:26:26.602Z,31.07
2022-12-20T20:28:53.480Z,27.60
2022-12-20T20:31:21.601Z,34.17
2022-12-20T20:33:49.289Z,33.60
2022-12-20T20:36:21.854Z,31.90
2022-12-20T20:38:50.095Z,29.57
2022-12-20T20:41:17.287Z,32.77
2022-12-20T20:43:44.896Z,36.43
2022-12-20T20:46:14.196Z,30.73
2022-12-20T20:48:42.874Z,31.80
2022-12-20T20:51:10.618Z,34.83
2022-12-20T20:53:38.786Z,31.33
2022-12-20T20:56:07.112Z,39.50
2022-12-20T20:58:35.395Z,35.13
2022-12-20T21:01:05.288Z,34.87
2022-12-20T21:03:32.784Z,33.10
2022-12-20T21:08:47.357Z,28.97
2022-12-20T21:11:15.303Z,32.93
2022-12-20T21:13:42.168Z,36.07
2022-12-20T21:16:20.279Z,32.13
2022-12-20T21:18:52.163Z,28.00
2022-12-20T21:21:20.398Z,24.93
2022-12-20T21:23:48.713Z,23.80
2022-12-20T21:26:18.468Z,24.10
2022-12-20T21:28:45.619Z,22.60
2022-12-20T21:31:18.733Z,24.83
2022-12-20T21:33:48.743Z,24.90
2022-12-20T21:36:18.614Z,28.90
2022-12-20T21:38:53.733Z,22.93
2022-12-20T21:41:23.446Z,23.07
2022-12-20T21:43:52.527Z,17.77
2022-12-20T21:46:19.253Z,21.13
2022-12-20T21:48:46.994Z,16.60
2022-12-20T21:51:19.831Z,20.73
2022-12-20T21:53:56.927Z,19.87
2022-12-20T21:56:26.140Z,18.23
2022-12-20T21:58:54.392Z,19.67
2022-12-20T22:01:23.677Z,17.57
2022-12-20T22:03:52.455Z,19.70
2022-12-20T22:06:20.608Z,17.03
2022-12-20T22:08:47.864Z,19.27
2022-12-20T22:11:17.787Z,15.90
2022-12-20T22:13:45.147Z,16.33
2022-12-20T22:16:30.196Z,16.83
2022-12-20T22:18:59.219Z,17.33
2022-12-20T22:21:28.928Z,17.93
2022-12-20T22:23:57.131Z,18.93
2022-12-20T22:26:26.763Z,14.07
2022-12-20T22:29:00.096Z,16.77
2022-12-20T22:31:27.489Z,16.40
2022-12-20T22:33:55.688Z,17.13
2022-12-20T22:36:25.363Z,13.10
2022-12-20T22:38:56.559Z,14.23
2022-12-20T22:41:29.305Z,12.83
2022-12-20T22:43:58.655Z,14.13
2022-12-20T22:46:29.283Z,12.37
2022-12-20T22:48:57.079Z,10.73
2022-12-20T22:51:31.009Z,11.53
2022-12-20T22:53:59.233Z,13.30
2022-12-20T22:56:26.427Z,13.17
2022-12-20T22:58:53.328Z,13.37
2022-12-20T23:01:21.461Z,15.73
2022-12-20T23:03:49.840Z,14.37
2022-12-20T23:06:19.473Z,11.47
2022-12-20T23:08:46.862Z,16.40
2022-12-20T23:11:41.916Z,16.60
2022-12-20T23:14:31.474Z,12.60
2022-12-20T23:16:58.888Z,15.40
2022-12-20T23:19:26.254Z,12.70
2022-12-20T23:22:11.959Z,11.77
2022-12-20T23:24:38.852Z,14.63
2022-12-20T23:27:05.601Z,16.20
2022-12-20T23:29:32.710Z,14.33
2022-12-20T23:31:59.861Z,19.30
2022-12-20T23:34:26.741Z,12.73
2022-12-20T23:36:53.458Z,12.93
2022-12-20T23:39:20.175Z,13.23
2022-12-20T23:41:46.856Z,16.50
2022-12-20T23:44:13.557Z,11.73
2022-12-20T23:46:40.326Z,12.50
2022-12-20T23:49:07.050Z,13.53
2022-12-20T23:51:34.707Z,12.07
2022-12-20T23:54:01.697Z,14.47
2022-12-20T23:56:28.451Z,13.17
2022-12-20T23:58:55.661Z,11.00
